createdAt,value
2023-05-07T00:00:21.741Z,100.00
2023-05-07T00:02:49.344Z,100.00
2023-05-07T00:05:17.043Z,100.00
2023-05-07T00:07:44.373Z,100.00
2023-05-07T00:10:13.429Z,100.00
2023-05-07T00:12:42.210Z,100.00
2023-05-07T00:15:09.980Z,100.00
2023-05-07T00:17:37.792Z,100.00
2023-05-07T00:20:06.368Z,100.00
2023-05-07T00:22:34.431Z,100.00
2023-05-07T00:25:01.838Z,100.00
2023-05-07T00:27:29.037Z,100.00
2023-05-07T00:29:56.257Z,100.00
2023-05-07T00:32:23.629Z,100.00
2023-05-07T00:34:51.949Z,100.00
2023-05-07T00:37:19.358Z,100.00
2023-05-07T00:39:46.539Z,100.00
2023-05-07T00:42:14.000Z,100.00
2023-05-07T00:44:41.217Z,100.00
2023-05-07T00:47:08.590Z,100.00
2023-05-07T00:49:46.605Z,100.00
2023-05-07T00:52:17.699Z,100.00
2023-05-07T00:54:45.428Z,100.00
2023-05-07T00:57:13.375Z,100.00
2023-05-07T00:59:41.661Z,100.00
2023-05-07T01:02:09.097Z,100.00
2023-05-07T01:04:37.550Z,100.00
2023-05-07T01:07:06.148Z,100.00
2023-05-07T01:09:36.448Z,100.00
2023-05-07T01:12:05.553Z,100.00
2023-05-07T01:14:34.058Z,100.00
2023-05-07T01:17:01.438Z,100.00
2023-05-07T01:19:31.243Z,100.00
2023-05-07T01:22:11.942Z,100.00
2023-05-07T01:24:48.647Z,100.00
2023-05-07T01:27:16.887Z,100.00
2023-05-07T01:29:44.407Z,100.00
2023-05-07T01:32:13.128Z,100.00
2023-05-07T01:34:41.289Z,100.00
2023-05-07T01:37:08.321Z,100.00
2023-05-07T01:39:40.250Z,100.00
2023-05-07T01:42:07.930Z,100.00
2023-05-07T01:44:35.417Z,100.00
2023-05-07T01:47:04.096Z,100.00
2023-05-07T01:49:31.887Z,100.00
2023-05-07T01:51:59.558Z,100.00
2023-05-07T01:54:31.505Z,100.00
2023-05-07T01:56:59.514Z,100.00
2023-05-07T01:59:26.744Z,100.00
2023-05-07T02:01:54.025Z,100.00
2023-05-07T02:04:21.507Z,100.00
2023-05-07T02:06:48.923Z,100.00
2023-05-07T02:09:18.651Z,100.00
2023-05-07T02:11:47.885Z,100.00
2023-05-07T02:14:15.134Z,100.00
2023-05-07T02:16:43.046Z,100.00
2023-05-07T02:19:12.408Z,100.00
2023-05-07T02:21:39.586Z,100.00
2023-05-07T02:24:07.036Z,100.00
2023-05-07T02:26:35.087Z,100.00
2023-05-07T02:29:02.377Z,100.00
2023-05-07T02:31:29.561Z,100.00
2023-05-07T02:33:56.779Z,100.00
2023-05-07T02:36:23.943Z,100.00
2023-05-07T02:39:05.748Z,100.00
2023-05-07T02:41:33.046Z,100.00
2023-05-07T02:44:00.168Z,100.00
2023-05-07T02:46:27.516Z,100.00
2023-05-07T02:49:01.379Z,100.00
2023-05-07T02:51:28.538Z,100.00
2023-05-07T02:53:58.462Z,100.00
2023-05-07T02:56:27.927Z,100.00
2023-05-07T02:58:55.192Z,100.00
2023-05-07T03:01:25.437Z,100.00
2023-05-07T03:03:59.327Z,100.00
2023-05-07T03:06:27.088Z,100.00
2023-05-07T03:08:54.264Z,100.00
2023-05-07T03:11:21.812Z,100.00
2023-05-07T03:13:50.435Z,100.00
2023-05-07T03:16:19.250Z,100.00
2023-05-07T03:18:46.432Z,100.00
2023-05-07T03:21:13.635Z,100.00
2023-05-07T03:23:40.843Z,100.00
2023-05-07T03:26:08.866Z,100.00
2023-05-07T03:28:36.204Z,100.00
2023-05-07T03:31:06.260Z,100.00
2023-05-07T03:33:52.969Z,100.00
2023-05-07T03:36:20.292Z,100.00
2023-05-07T03:38:48.702Z,100.00
2023-05-07T03:41:19.779Z,100.00
2023-05-07T03:43:47.209Z,100.00
2023-05-07T03:46:14.709Z,100.00
2023-05-07T03:48:42.610Z,100.00
2023-05-07T03:51:14.200Z,100.00
2023-05-07T03:53:41.503Z,100.00
2023-05-07T03:56:08.885Z,100.00
2023-05-07T03:58:38.567Z,100.00
2023-05-07T04:01:09.627Z,100.00
2023-05-07T04:03:37.051Z,100.00
2023-05-07T04:06:04.974Z,100.00
2023-05-07T04:08:35.149Z,100.00
2023-05-07T04:11:03.231Z,100.00
2023-05-07T04:13:34.145Z,100.00
2023-05-07T04:16:05.704Z,100.00
2023-05-07T04:18:35.420Z,100.00
2023-05-07T04:21:02.874Z,100.00
2023-05-07T04:23:30.199Z,100.00
2023-05-07T04:25:59.884Z,100.00
2023-05-07T04:28:36.340Z,100.00
2023-05-07T04:31:03.565Z,100.00
2023-05-07T04:33:32.385Z,100.00
2023-05-07T04:36:04.082Z,100.00
2023-05-07T04:38:34.009Z,100.00
2023-05-07T04:41:07.612Z,100.00
2023-05-07T04:43:39.101Z,100.00
2023-05-07T04:46:06.467Z,100.00
2023-05-07T04:48:34.037Z,100.00
2023-05-07T04:51:03.117Z,100.00
2023-05-07T04:53:30.511Z,100.00
2023-05-07T04:55:59.146Z,100.00
2023-05-07T04:58:32.678Z,100.00
2023-05-07T05:01:01.478Z,100.00
2023-05-07T05:03:29.654Z,100.00
2023-05-07T05:05:58.008Z,100.00
2023-05-07T05:08:27.547Z,100.00
2023-05-07T05:10:54.885Z,100.00
2023-05-07T05:13:22.405Z,100.00
2023-05-07T05:15:50.013Z,100.00
2023-05-07T05:18:17.802Z,100.00
2023-05-07T05:20:44.973Z,100.00
2023-05-07T05:23:13.044Z,100.00
2023-05-07T05:25:41.429Z,100.00
2023-05-07T05:28:11.458Z,100.00
2023-05-07T05:30:38.670Z,100.00
2023-05-07T05:33:06.076Z,100.00
2023-05-07T05:35:33.613Z,100.00
2023-05-07T05:38:04.713Z,100.00
2023-05-07T05:40:33.140Z,100.00
2023-05-07T05:43:01.207Z,100.00
2023-05-07T05:45:28.844Z,100.00
2023-05-07T05:47:57.988Z,100.00
2023-05-07T05:50:26.037Z,100.00
2023-05-07T05:52:53.961Z,100.00
2023-05-07T05:55:22.912Z,100.00
2023-05-07T05:57:51.342Z,100.00
2023-05-07T06:00:23.252Z,100.00
2023-05-07T06:02:57.956Z,100.00
2023-05-07T06:05:26.705Z,100.00
2023-05-07T06:07:56.214Z,100.00
2023-05-07T06:10:23.541Z,100.00
2023-05-07T06:12:50.787Z,100.00
2023-05-07T06:15:18.321Z,100.00
2023-05-07T06:17:46.656Z,100.00
2023-05-07T06:20:14.345Z,100.00
2023-05-07T06:22:42.005Z,100.00
2023-05-07T06:25:11.301Z,100.00
2023-05-07T06:27:40.632Z,100.00
2023-05-07T06:30:09.764Z,100.00
2023-05-07T06:32:38.324Z,100.00
2023-05-07T06:35:06.883Z,100.00
2023-05-07T06:37:39.318Z,100.00
2023-05-07T06:40:08.788Z,100.00
2023-05-07T06:42:38.888Z,100.00
2023-05-07T06:45:44.385Z,100.00
2023-05-07T06:48:13.099Z,100.00
2023-05-07T06:50:56.588Z,100.00
2023-05-07T06:53:25.494Z,100.00
2023-05-07T06:55:54.228Z,100.00
2023-05-07T06:58:21.443Z,100.00
2023-05-07T07:00:49.228Z,100.00
2023-05-07T07:03:16.846Z,100.00
2023-05-07T07:05:44.902Z,100.00
2023-05-07T07:08:12.250Z,100.00
2023-05-07T07:10:40.539Z,100.00
2023-05-07T07:13:08.045Z,100.00
2023-05-07T07:15:35.526Z,100.00
2023-05-07T07:18:02.857Z,100.00
2023-05-07T07:20:30.180Z,100.00
2023-05-07T07:22:57.471Z,100.00
2023-05-07T07:25:24.900Z,100.00
2023-05-07T07:27:53.071Z,100.00
2023-05-07T07:30:22.672Z,100.00
2023-05-07T07:32:50.591Z,100.00
2023-05-07T07:35:18.098Z,100.00
2023-05-07T07:37:46.403Z,100.00
2023-05-07T07:40:15.575Z,100.00
2023-05-07T07:42:43.207Z,100.00
2023-05-07T07:45:11.519Z,100.00
2023-05-07T07:47:42.384Z,100.00
2023-05-07T07:50:11.639Z,100.00
2023-05-07T07:52:41.764Z,100.00
2023-05-07T07:55:10.452Z,100.00
2023-05-07T07:57:39.170Z,100.00
2023-05-07T08:00:08.486Z,100.00
2023-05-07T08:02:44.194Z,100.00
2023-05-07T08:05:17.184Z,100.00
2023-05-07T08:07:45.629Z,100.00
2023-05-07T08:10:13.902Z,100.00
2023-05-07T08:12:41.286Z,100.00
2023-05-07T08:15:09.735Z,100.00
2023-05-07T08:17:37.006Z,100.00
2023-05-07T08:20:05.072Z,100.00
2023-05-07T08:22:32.357Z,100.00
2023-05-07T08:25:00.736Z,100.00
2023-05-07T08:27:28.105Z,100.00
2023-05-07T08:29:55.790Z,100.00
2023-05-07T08:32:23.451Z,100.00
2023-05-07T08:34:50.743Z,100.00
2023-05-07T08:37:18.701Z,100.00
2023-05-07T08:39:46.752Z,100.00
2023-05-07T08:42:21.957Z,100.00
2023-05-07T08:44:54.053Z,100.00
2023-05-07T08:47:30.997Z,100.00
2023-05-07T08:50:01.575Z,100.00
2023-05-07T08:52:29.387Z,100.00
2023-05-07T08:54:57.402Z,100.00
2023-05-07T08:57:25.545Z,100.00
2023-05-07T08:59:53.465Z,100.00
2023-05-07T09:02:21.021Z,100.00
2023-05-07T09:04:48.737Z,100.00
2023-05-07T09:07:16.103Z,100.00
2023-05-07T09:09:45.716Z,100.00
2023-05-07T09:12:14.804Z,100.00
2023-05-07T09:14:42.229Z,100.00
2023-05-07T09:17:09.637Z,100.00
2023-05-07T09:19:36.957Z,100.00
2023-05-07T09:22:10.372Z,100.00
2023-05-07T09:24:53.260Z,100.00
2023-05-07T09:27:23.674Z,100.00
2023-05-07T09:29:51.587Z,100.00
2023-05-07T09:32:18.947Z,100.00
2023-05-07T09:34:49.235Z,100.00
2023-05-07T09:37:19.834Z,100.00
2023-05-07T09:39:50.707Z,100.00
2023-05-07T09:42:28.750Z,100.00
2023-05-07T09:45:01.050Z,100.00
2023-05-07T09:47:36.625Z,100.00
2023-05-07T09:50:09.700Z,100.00
2023-05-07T09:52:37.675Z,100.00
2023-05-07T09:55:08.443Z,100.00
2023-05-07T09:57:37.107Z,100.00
2023-05-07T10:00:09.797Z,100.00
2023-05-07T10:02:54.011Z,100.00
2023-05-07T10:05:33.606Z,100.00
2023-05-07T10:08:04.653Z,100.00
2023-05-07T10:10:35.327Z,100.00
2023-05-07T10:13:06.952Z,100.00
2023-05-07T10:15:36.136Z,100.00
2023-05-07T10:18:07.254Z,100.00
2023-05-07T10:20:37.414Z,100.00
2023-05-07T10:23:08.198Z,100.00
2023-05-07T10:25:42.512Z,100.00
2023-05-07T10:28:19.535Z,100.00
2023-05-07T10:31:45.812Z,100.00
2023-05-07T10:34:23.462Z,100.00
2023-05-07T10:36:52.881Z,100.00
2023-05-07T10:39:22.887Z,100.00
2023-05-07T10:41:50.613Z,100.00
2023-05-07T10:44:29.752Z,100.00
2023-05-07T10:47:14.094Z,100.00
2023-05-07T10:49:47.837Z,100.00
2023-05-07T10:52:31.188Z,100.00
2023-05-07T10:55:22.267Z,100.00
2023-05-07T11:01:06.700Z,100.00
2023-05-07T11:04:16.228Z,100.00
2023-05-07T11:07:07.662Z,100.00
2023-05-07T11:10:02.055Z,100.00
2023-05-07T11:12:41.777Z,100.00
2023-05-07T11:15:18.607Z,100.00
2023-05-07T11:17:59.388Z,100.00
2023-05-07T11:20:56.856Z,92.18
2023-05-07T11:23:41.686Z,81.18
2023-05-07T11:26:18.966Z,94.32
2023-05-07T11:28:46.906Z,96.92
2023-05-07T11:31:14.300Z,88.74
2023-05-07T11:33:44.578Z,76.25
2023-05-07T11:36:16.332Z,81.61
2023-05-07T11:38:48.320Z,78.78
2023-05-07T11:41:17.488Z,90.67
2023-05-07T11:44:01.066Z,96.50
2023-05-07T11:46:29.919Z,94.27
2023-05-07T11:48:57.767Z,84.62
2023-05-07T11:51:29.821Z,84.91
2023-05-07T11:53:57.893Z,89.27
2023-05-07T11:56:25.490Z,86.67
2023-05-07T11:58:53.164Z,100.00
2023-05-07T12:01:20.507Z,100.00
2023-05-07T12:03:50.824Z,100.00
2023-05-07T12:06:19.449Z,100.00
2023-05-07T12:08:48.292Z,100.00
2023-05-07T12:11:24.764Z,100.00
2023-05-07T12:13:52.810Z,100.00
2023-05-07T12:16:20.512Z,100.00
2023-05-07T12:18:48.093Z,100.00
2023-05-07T12:21:15.864Z,100.00
2023-05-07T12:23:43.904Z,100.00
2023-05-07T12:26:11.702Z,100.00
2023-05-07T12:28:40.307Z,100.00
2023-05-07T12:31:08.614Z,100.00
2023-05-07T12:33:37.305Z,100.00
2023-05-07T12:36:08.828Z,100.00
2023-05-07T12:38:41.887Z,100.00
2023-05-07T12:41:11.922Z,100.00
2023-05-07T12:43:39.707Z,100.00
2023-05-07T12:46:09.452Z,100.00
2023-05-07T12:48:46.697Z,100.00
2023-05-07T12:51:16.051Z,100.00
2023-05-07T12:53:44.007Z,100.00
2023-05-07T12:56:11.201Z,100.00
2023-05-07T12:58:38.445Z,100.00
2023-05-07T13:01:10.797Z,100.00
2023-05-07T13:03:39.897Z,100.00
2023-05-07T13:06:16.125Z,100.00
2023-05-07T13:08:44.321Z,100.00
2023-05-07T13:11:13.414Z,100.00
2023-05-07T13:13:42.417Z,100.00
2023-05-07T13:16:12.596Z,100.00
2023-05-07T13:18:41.708Z,100.00
2023-05-07T13:21:09.265Z,100.00
2023-05-07T13:23:36.454Z,99.59
2023-05-07T13:26:08.473Z,89.07
2023-05-07T13:28:38.930Z,82.32
2023-05-07T13:31:06.156Z,64.10
2023-05-07T13:33:33.375Z,64.75
2023-05-07T13:36:01.580Z,75.47
2023-05-07T13:38:28.810Z,84.21
2023-05-07T13:40:56.033Z,66.72
2023-05-07T13:43:23.324Z,68.99
2023-05-07T13:45:50.670Z,69.12
2023-05-07T13:48:17.999Z,61.05
2023-05-07T13:50:45.280Z,70.72
2023-05-07T13:53:12.470Z,66.53
2023-05-07T13:55:39.955Z,62.82
2023-05-07T13:58:07.797Z,69.74
2023-05-07T14:00:35.406Z,67.78
2023-05-07T14:03:03.116Z,58.14
2023-05-07T14:05:30.482Z,56.87
2023-05-07T14:08:01.054Z,59.27
2023-05-07T14:10:32.848Z,69.79
2023-05-07T14:13:00.159Z,66.08
2023-05-07T14:15:27.381Z,55.28
2023-05-07T14:17:54.644Z,60.17
2023-05-07T14:20:22.284Z,69.67
2023-05-07T14:22:49.586Z,56.48
2023-05-07T14:25:17.145Z,62.07
2023-05-07T14:27:49.906Z,58.46
2023-05-07T14:30:17.908Z,47.58
2023-05-07T14:32:45.352Z,47.99
2023-05-07T14:35:12.926Z,49.29
2023-05-07T14:37:40.314Z,51.18
2023-05-07T14:40:08.905Z,53.09
2023-05-07T14:42:36.168Z,56.66
2023-05-07T14:45:03.918Z,66.07
2023-05-07T14:47:31.469Z,61.74
2023-05-07T14:49:59.432Z,66.31
2023-05-07T14:52:26.981Z,55.82
2023-05-07T14:54:54.507Z,51.33
2023-05-07T14:57:21.910Z,61.59
2023-05-07T14:59:49.239Z,61.93
2023-05-07T15:02:16.968Z,66.52
2023-05-07T15:04:47.068Z,61.25
2023-05-07T15:07:16.466Z,60.50
2023-05-07T15:09:44.912Z,63.34
2023-05-07T15:12:12.672Z,60.64
2023-05-07T15:14:40.469Z,70.15
2023-05-07T15:17:08.454Z,72.42
2023-05-07T15:19:36.145Z,78.11
2023-05-07T15:22:03.646Z,76.39
2023-05-07T15:24:32.392Z,73.38
2023-05-07T15:26:59.745Z,71.15
2023-05-07T15:29:27.175Z,68.44
2023-05-07T15:31:55.315Z,72.25
2023-05-07T15:34:25.375Z,67.46
2023-05-07T15:36:52.700Z,64.36
2023-05-07T15:39:19.971Z,62.70
2023-05-07T15:41:47.293Z,63.31
2023-05-07T15:44:14.691Z,71.86
2023-05-07T15:46:42.812Z,77.41
2023-05-07T15:49:10.287Z,82.11
2023-05-07T15:51:37.703Z,85.61
2023-05-07T15:54:07.961Z,82.61
2023-05-07T15:56:35.425Z,82.02
2023-05-07T15:59:04.127Z,74.58
2023-05-07T16:01:32.970Z,75.38
2023-05-07T16:04:00.357Z,79.67
2023-05-07T16:06:28.522Z,83.50
2023-05-07T16:08:55.783Z,85.16
2023-05-07T16:11:23.178Z,85.45
2023-05-07T16:13:51.156Z,77.92
2023-05-07T16:16:19.371Z,78.89
2023-05-07T16:18:46.765Z,73.50
2023-05-07T16:21:14.517Z,78.28
2023-05-07T16:23:42.176Z,64.36
2023-05-07T16:26:09.738Z,56.82
2023-05-07T16:28:37.993Z,65.42
2023-05-07T16:31:08.508Z,54.39
2023-05-07T16:33:36.741Z,57.98
2023-05-07T16:36:04.720Z,63.21
2023-05-07T16:38:33.224Z,60.79
2023-05-07T16:41:01.529Z,63.95
2023-05-07T16:43:29.119Z,56.07
2023-05-07T16:45:56.500Z,71.52
2023-05-07T16:48:23.818Z,82.24
2023-05-07T16:50:51.193Z,82.83
2023-05-07T16:53:18.618Z,89.16
2023-05-07T16:55:46.058Z,95.79
2023-05-07T16:58:13.594Z,96.78
2023-05-07T17:00:50.733Z,97.16
2023-05-07T17:03:19.459Z,97.35
2023-05-07T17:05:47.369Z,97.68
2023-05-07T17:08:14.762Z,96.20
2023-05-07T17:10:42.259Z,98.31
2023-05-07T17:13:09.737Z,99.72
2023-05-07T17:15:37.114Z,95.71
2023-05-07T17:18:04.488Z,97.64
2023-05-07T17:20:31.846Z,100.00
2023-05-07T17:22:59.237Z,100.00
2023-05-07T17:25:26.771Z,100.00
2023-05-07T17:27:54.000Z,100.00
2023-05-07T17:30:21.491Z,100.00
2023-05-07T17:32:48.748Z,100.00
2023-05-07T17:35:16.261Z,100.00
2023-05-07T17:37:47.050Z,100.00
2023-05-07T17:40:15.638Z,100.00
2023-05-07T17:42:42.889Z,100.00
2023-05-07T17:45:11.856Z,100.00
2023-05-07T17:47:39.140Z,99.25
2023-05-07T17:50:11.273Z,100.00
2023-05-07T17:52:41.151Z,100.00
2023-05-07T17:55:09.350Z,99.60
2023-05-07T17:57:36.990Z,99.61
2023-05-07T18:00:10.245Z,99.49
2023-05-07T18:02:38.216Z,99.01
2023-05-07T18:05:05.940Z,99.13
2023-05-07T18:07:33.626Z,100.00
2023-05-07T18:10:00.844Z,100.00
2023-05-07T18:12:28.173Z,100.00
2023-05-07T18:14:55.452Z,100.00
2023-05-07T18:17:26.956Z,100.00
2023-05-07T18:19:55.396Z,100.00
2023-05-07T18:22:23.062Z,100.00
2023-05-07T18:24:50.996Z,100.00
2023-05-07T18:27:18.658Z,100.00
2023-05-07T18:29:46.302Z,100.00
2023-05-07T18:32:14.145Z,100.00
2023-05-07T18:34:41.458Z,100.00
2023-05-07T18:37:08.959Z,100.00
2023-05-07T18:39:36.666Z,100.00
2023-05-07T18:42:08.245Z,100.00
2023-05-07T18:44:38.604Z,100.00
2023-05-07T18:47:06.493Z,100.00
2023-05-07T18:49:34.897Z,100.00
2023-05-07T18:52:02.505Z,100.00
2023-05-07T18:54:29.825Z,100.00
2023-05-07T18:58:20.720Z,100.00
2023-05-07T19:00:49.091Z,100.00
2023-05-07T19:03:17.410Z,100.00
2023-05-07T19:05:45.718Z,100.00
2023-05-07T19:08:13.537Z,98.31
2023-05-07T19:10:40.983Z,91.46
2023-05-07T19:13:08.250Z,84.68
2023-05-07T19:15:35.623Z,84.20
2023-05-07T19:18:03.070Z,86.26
2023-05-07T19:20:30.551Z,88.34
2023-05-07T19:22:57.923Z,89.04
2023-05-07T19:25:25.163Z,89.35
2023-05-07T19:27:52.377Z,88.80
2023-05-07T19:30:19.772Z,88.48
2023-05-07T19:32:47.514Z,86.72
2023-05-07T19:35:15.154Z,83.87
2023-05-07T19:37:42.562Z,83.35
2023-05-07T19:40:10.968Z,82.97
2023-05-07T19:42:38.538Z,83.31
2023-05-07T19:45:07.339Z,83.12
2023-05-07T19:47:34.735Z,83.76
2023-05-07T19:50:01.950Z,84.89
2023-05-07T19:52:29.197Z,85.50
2023-05-07T19:54:56.731Z,85.44
2023-05-07T19:57:24.048Z,82.99
2023-05-07T19:59:51.439Z,82.82
2023-05-07T20:02:18.851Z,82.84
2023-05-07T20:04:46.477Z,83.08
2023-05-07T20:07:13.763Z,84.03
2023-05-07T20:09:41.465Z,84.36
2023-05-07T20:12:08.960Z,85.06
2023-05-07T20:14:36.301Z,85.85
2023-05-07T20:17:03.802Z,86.16
2023-05-07T20:19:31.304Z,86.23
2023-05-07T20:21:58.657Z,87.25
2023-05-07T20:24:25.896Z,87.42
2023-05-07T20:26:53.449Z,87.98
2023-05-07T20:29:22.854Z,96.97
2023-05-07T20:31:50.171Z,100.00
2023-05-07T20:34:17.587Z,100.00
2023-05-07T20:36:46.408Z,100.00
2023-05-07T20:39:15.984Z,100.00
2023-05-07T20:41:46.181Z,100.00
2023-05-07T20:44:13.480Z,100.00
2023-05-07T20:46:40.910Z,100.00
2023-05-07T20:49:08.675Z,100.00
2023-05-07T20:51:36.889Z,100.00
2023-05-07T20:54:04.247Z,100.00
2023-05-07T20:56:31.531Z,100.00
2023-05-07T20:58:58.795Z,100.00
2023-05-07T21:01:26.329Z,100.00
2023-05-07T21:03:54.120Z,100.00
2023-05-07T21:06:21.651Z,100.00
2023-05-07T21:08:48.877Z,100.00
2023-05-07T21:11:16.246Z,100.00
2023-05-07T21:13:43.543Z,100.00
2023-05-07T21:16:11.083Z,100.00
2023-05-07T21:18:38.524Z,100.00
2023-05-07T21:21:10.645Z,100.00
2023-05-07T21:23:38.613Z,100.00
2023-05-07T21:26:05.906Z,100.00
2023-05-07T21:28:33.153Z,100.00
2023-05-07T21:31:00.309Z,100.00
2023-05-07T21:33:27.608Z,100.00
2023-05-07T21:35:54.979Z,100.00
2023-05-07T21:38:22.268Z,100.00
2023-05-07T21:40:49.400Z,100.00
2023-05-07T21:43:16.617Z,100.00
2023-05-07T21:45:43.815Z,100.00
2023-05-07T21:48:11.152Z,100.00
2023-05-07T21:50:38.378Z,100.00
2023-05-07T21:53:06.048Z,100.00
2023-05-07T21:55:33.578Z,100.00
2023-05-07T21:58:05.440Z,100.00
2023-05-07T22:00:33.653Z,100.00
2023-05-07T22:03:01.155Z,100.00
2023-05-07T22:05:28.868Z,100.00
2023-05-07T22:07:56.036Z,100.00
2023-05-07T22:10:23.990Z,100.00
2023-05-07T22:12:51.304Z,100.00
2023-05-07T22:15:18.756Z,100.00
2023-05-07T22:17:45.985Z,100.00
2023-05-07T22:20:13.563Z,100.00
2023-05-07T22:22:55.992Z,100.00
2023-05-07T22:25:24.975Z,100.00
2023-05-07T22:27:52.826Z,100.00
2023-05-07T22:30:20.290Z,100.00
2023-05-07T22:32:47.639Z,100.00
2023-05-07T22:35:14.893Z,100.00
2023-05-07T22:37:42.204Z,100.00
2023-05-07T22:40:10.502Z,100.00
2023-05-07T22:42:38.253Z,100.00
2023-05-07T22:45:06.596Z,100.00
2023-05-07T22:47:33.969Z,100.00
2023-05-07T22:50:01.721Z,100.00
2023-05-07T22:52:29.083Z,100.00
2023-05-07T22:54:56.335Z,100.00
2023-05-07T22:57:23.501Z,100.00
2023-05-07T22:59:57.682Z,100.00
2023-05-07T23:02:27.280Z,100.00
2023-05-07T23:04:54.938Z,100.00
2023-05-07T23:07:22.392Z,100.00
2023-05-07T23:09:50.001Z,100.00
2023-05-07T23:12:17.359Z,100.00
2023-05-07T23:14:44.707Z,100.00
2023-05-07T23:17:12.202Z,100.00
2023-05-07T23:19:39.920Z,100.00
2023-05-07T23:22:07.698Z,100.00
2023-05-07T23:24:35.033Z,100.00
2023-05-07T23:27:08.360Z,100.00
2023-05-07T23:29:35.915Z,100.00
2023-05-07T23:32:03.811Z,100.00
2023-05-07T23:34:31.039Z,100.00
2023-05-07T23:36:58.438Z,100.00
2023-05-07T23:39:25.897Z,100.00
2023-05-07T23:41:53.068Z,100.00
2023-05-07T23:44:20.368Z,100.00
2023-05-07T23:46:48.794Z,100.00
2023-05-07T23:49:16.091Z,100.00
2023-05-07T23:51:43.265Z,100.00
2023-05-07T23:54:10.649Z,100.00
2023-05-07T23:56:38.018Z,100.00
2023-05-07T23:59:05.291Z,100.00
